createdAt,value
2023-02-14T00:01:50.677Z,100937.72
2023-02-14T00:04:20.618Z,100940.97
2023-02-14T00:06:49.298Z,100940.69
2023-02-14T00:09:20.959Z,100936.09
2023-02-14T00:11:49.455Z,100926.75
2023-02-14T00:14:35.960Z,100926.47
2023-02-14T00:17:04.384Z,100922.44
2023-02-14T00:19:34.954Z,100933.16
2023-02-14T00:22:03.210Z,100931.56
2023-02-14T00:24:32.897Z,100941.22
2023-02-14T00:27:01.482Z,100934.25
2023-02-14T00:29:31.406Z,100936.69
2023-02-14T00:31:59.918Z,100937.19
2023-02-14T00:34:29.691Z,100928.34
2023-02-14T00:36:59.394Z,100932.13
2023-02-14T00:39:27.511Z,100919.22
2023-02-14T00:44:42.754Z,100921.91
2023-02-14T00:47:10.993Z,100915.75
2023-02-14T00:49:39.048Z,100918.97
2023-02-14T00:52:07.166Z,100923.53
2023-02-14T00:54:35.301Z,100932.38
2023-02-14T00:57:05.132Z,100939.88
2023-02-14T00:59:33.289Z,100936.94
2023-02-14T01:02:01.586Z,100933.72
2023-02-14T01:04:29.672Z,100931.31
2023-02-14T01:06:58.038Z,100927.00
2023-02-14T01:09:26.198Z,100927.00
2023-02-14T01:11:54.308Z,100929.69
2023-02-14T01:14:23.906Z,100923.53
2023-02-14T01:16:52.136Z,100917.91
2023-02-14T01:19:20.324Z,100919.25
2023-02-14T01:21:48.693Z,100916.28
2023-02-14T01:24:16.889Z,100905.28
2023-02-14T01:26:45.170Z,100913.59
2023-02-14T01:29:13.406Z,100903.16
2023-02-14T01:31:43.405Z,100888.66
2023-02-14T01:34:11.844Z,100892.69
2023-02-14T01:36:41.168Z,100895.13
2023-02-14T01:39:13.732Z,100895.63
2023-02-14T01:41:44.215Z,100903.97
2023-02-14T01:44:45.871Z,100905.56
2023-02-14T01:47:16.719Z,100901.78
2023-02-14T01:49:49.425Z,100894.81
2023-02-14T01:52:21.467Z,100900.19
2023-02-14T01:54:55.657Z,100903.91
2023-02-14T01:57:26.298Z,100901.78
2023-02-14T02:00:17.443Z,100891.06
2023-02-14T02:02:47.854Z,100876.53
2023-02-14T02:05:17.448Z,100872.81
2023-02-14T02:07:45.566Z,100870.63
2023-02-14T02:10:14.003Z,100871.19
2023-02-14T02:12:42.783Z,100869.28
2023-02-14T02:15:11.463Z,100858.31
2023-02-14T02:17:53.087Z,100865.28
2023-02-14T02:20:58.760Z,100862.88
2023-02-14T02:24:02.142Z,100862.88
2023-02-14T02:27:03.397Z,100854.53
2023-02-14T02:30:14.655Z,100859.09
2023-02-14T02:33:13.319Z,100858.00
2023-02-14T02:35:52.358Z,100852.06
2023-02-14T02:38:41.942Z,100843.22
2023-02-14T02:41:19.183Z,100844.56
2023-02-14T02:43:57.014Z,100855.59
2023-02-14T02:46:56.802Z,100854.78
2023-02-14T02:49:53.033Z,100852.94
2023-02-14T02:52:48.589Z,100854.53
2023-02-14T02:55:22.337Z,100850.25
2023-02-14T02:57:52.006Z,100847.56
2023-02-14T03:00:23.384Z,100849.16
2023-02-14T03:03:12.044Z,100839.78
2023-02-14T03:05:41.376Z,100846.50
2023-02-14T03:08:11.008Z,100834.72
2023-02-14T03:10:41.518Z,100827.16
2023-02-14T03:13:27.087Z,100825.09
2023-02-14T03:16:19.950Z,100824.00
2023-02-14T03:19:23.653Z,100817.06
2023-02-14T03:21:57.036Z,100817.59
2023-02-14T03:24:36.334Z,100822.44
2023-02-14T03:27:11.387Z,100817.63
2023-02-14T03:29:52.190Z,100810.66
2023-02-14T03:32:27.957Z,100809.03
2023-02-14T03:35:02.045Z,100804.22
2023-02-14T03:37:35.944Z,100806.91
2023-02-14T03:40:11.441Z,100810.91
2023-02-14T03:42:44.956Z,100810.66
2023-02-14T03:45:19.686Z,100817.38
2023-02-14T03:47:51.134Z,100816.00
2023-02-14T03:50:21.419Z,100805.81
2023-02-14T03:52:53.574Z,100799.94
2023-02-14T03:55:29.533Z,100804.44
2023-02-14T03:58:03.162Z,100826.44
2023-02-14T04:00:34.199Z,100825.91
2023-02-14T04:03:07.503Z,100826.69
2023-02-14T04:05:35.697Z,100827.78
2023-02-14T04:08:03.862Z,100833.16
2023-02-14T04:10:34.096Z,100817.31
2023-02-14T04:13:02.276Z,100811.69
2023-02-14T04:15:30.873Z,100799.34
2023-02-14T04:18:16.811Z,100807.69
2023-02-14T04:20:44.878Z,100802.56
2023-02-14T04:23:13.150Z,100791.88
2023-02-14T04:25:45.781Z,100783.31
2023-02-14T04:28:14.517Z,100782.50
2023-02-14T04:30:42.784Z,100784.91
2023-02-14T04:33:11.120Z,100783.56
2023-02-14T04:35:39.286Z,100786.53
2023-02-14T04:38:07.492Z,100784.41
2023-02-14T04:40:35.836Z,100775.28
2023-02-14T04:43:07.653Z,100759.72
2023-02-14T04:45:35.718Z,100768.84
2023-02-14T04:48:04.046Z,100761.31
2023-02-14T04:50:32.222Z,100748.47
2023-02-14T04:53:00.648Z,100751.13
2023-02-14T04:55:28.790Z,100755.38
2023-02-14T04:57:56.833Z,100760.22
2023-02-14T05:00:26.643Z,100748.69
2023-02-14T05:02:54.806Z,100750.63
2023-02-14T05:05:22.844Z,100743.66
2023-02-14T05:07:50.951Z,100737.50
2023-02-14T05:10:19.373Z,100728.13
2023-02-14T05:12:47.956Z,100726.00
2023-02-14T05:15:16.533Z,100726.00
2023-02-14T05:17:46.453Z,100734.59
2023-02-14T05:20:14.608Z,100735.63
2023-02-14T05:22:42.771Z,100732.41
2023-02-14T05:25:10.815Z,100731.91
2023-02-14T05:27:38.877Z,100746.66
2023-02-14T05:30:09.646Z,100746.38
2023-02-14T05:32:37.850Z,100753.34
2023-02-14T05:35:08.382Z,100752.81
2023-02-14T05:37:36.629Z,100749.03
2023-02-14T05:40:08.500Z,100746.09
2023-02-14T05:42:36.739Z,100753.31
2023-02-14T05:45:05.200Z,100745.78
2023-02-14T05:47:33.634Z,100738.03
2023-02-14T05:50:01.771Z,100743.34
2023-02-14T05:52:31.324Z,100740.94
2023-02-14T05:54:59.862Z,100728.59
2023-02-14T05:57:27.971Z,100727.53
2023-02-14T05:59:56.146Z,100719.44
2023-02-14T06:02:24.242Z,100729.13
2023-02-14T06:04:52.435Z,100718.38
2023-02-14T06:07:21.133Z,100730.13
2023-02-14T06:09:50.804Z,100725.78
2023-02-14T06:12:19.051Z,100729.22
2023-02-14T06:14:48.540Z,100723.56
2023-02-14T06:17:16.796Z,100727.81
2023-02-14T06:19:45.269Z,100729.16
2023-02-14T06:22:13.425Z,100723.75
2023-02-14T06:24:41.525Z,100726.94
2023-02-14T06:27:11.165Z,100732.53
2023-02-14T06:29:39.204Z,100722.84
2023-02-14T06:32:07.467Z,100726.03
2023-02-14T06:34:36.704Z,100724.63
2023-02-14T06:37:04.802Z,100723.81
2023-02-14T06:39:33.036Z,100723.00
2023-02-14T06:42:01.142Z,100725.88
2023-02-14T06:44:30.784Z,100723.38
2023-02-14T06:46:59.050Z,100727.13
2023-02-14T06:49:30.441Z,100742.91
2023-02-14T06:51:58.524Z,100738.06
2023-02-14T06:54:26.651Z,100732.31
2023-02-14T06:56:54.926Z,100740.38
2023-02-14T06:59:23.209Z,100731.47
2023-02-14T07:01:52.987Z,100733.53
2023-02-14T07:04:21.113Z,100734.03
2023-02-14T07:06:49.540Z,100727.47
2023-02-14T07:09:18.479Z,100723.72
2023-02-14T07:11:46.892Z,100735.50
2023-02-14T07:14:16.017Z,100732.53
2023-02-14T07:16:44.096Z,100733.53
2023-02-14T07:19:14.124Z,100735.84
2023-02-14T07:21:42.400Z,100739.50
2023-02-14T07:24:10.772Z,100720.09
2023-02-14T07:26:39.231Z,100733.50
2023-02-14T07:29:07.490Z,100727.50
2023-02-14T07:31:35.810Z,100734.34
2023-02-14T07:34:04.135Z,100724.91
2023-02-14T07:36:33.699Z,100727.81
2023-02-14T07:39:01.853Z,100720.66
2023-02-14T07:41:30.162Z,100722.78
2023-02-14T07:43:58.232Z,100708.91
2023-02-14T07:46:26.453Z,100722.13
2023-02-14T07:48:54.714Z,100713.19
2023-02-14T07:51:22.890Z,100720.38
2023-02-14T07:53:52.774Z,100721.22
2023-02-14T07:56:21.346Z,100714.00
2023-02-14T07:58:49.969Z,100711.72
2023-02-14T08:01:18.448Z,100706.91
2023-02-14T08:03:49.612Z,100700.41
2023-02-14T08:06:17.976Z,100710.09
2023-02-14T08:08:47.022Z,100710.53
2023-02-14T08:11:37.543Z,100712.50
2023-02-14T08:14:06.593Z,100728.53
2023-02-14T08:16:35.067Z,100724.13
2023-02-14T08:19:03.970Z,100723.72
2023-02-14T08:21:32.188Z,100720.16
2023-02-14T08:24:00.560Z,100737.56
2023-02-14T08:26:30.296Z,100736.09
2023-02-14T08:28:58.650Z,100744.53
2023-02-14T08:31:35.754Z,100737.22
2023-02-14T08:34:05.219Z,100745.13
2023-02-14T08:36:33.560Z,100743.81
2023-02-14T08:39:02.037Z,100730.25
2023-02-14T08:41:32.225Z,100751.34
2023-02-14T08:44:00.570Z,100750.94
2023-02-14T08:46:29.341Z,100749.16
2023-02-14T08:48:57.906Z,100736.66
2023-02-14T08:51:26.552Z,100730.56
2023-02-14T08:53:56.254Z,100739.47
2023-02-14T08:56:25.005Z,100714.28
2023-02-14T08:58:55.803Z,100721.25
2023-02-14T09:01:24.420Z,100713.66
2023-02-14T09:03:55.792Z,100715.56
2023-02-14T09:06:24.360Z,100715.84
2023-02-14T09:08:55.295Z,100708.16
2023-02-14T09:11:26.309Z,100705.91
2023-02-14T09:13:56.171Z,100688.00
2023-02-14T09:16:25.837Z,100682.03
2023-02-14T09:18:55.298Z,100694.81
2023-02-14T09:21:25.647Z,100681.69
2023-02-14T09:23:53.832Z,100674.56
2023-02-14T09:26:22.363Z,100684.22
2023-02-14T09:28:50.664Z,100686.09
2023-02-14T09:31:22.579Z,100688.50
2023-02-14T09:34:09.292Z,100683.38
2023-02-14T09:36:54.688Z,100687.09
2023-02-14T09:39:23.012Z,100679.78
2023-02-14T09:42:11.207Z,100671.63
2023-02-14T09:44:43.855Z,100670.81
2023-02-14T09:47:24.276Z,100678.44
2023-02-14T09:49:54.464Z,100684.16
2023-02-14T09:52:27.694Z,100678.94
2023-02-14T09:55:01.354Z,100680.88
2023-02-14T09:57:38.722Z,100656.38
2023-02-14T10:00:20.491Z,100641.25
2023-02-14T10:03:03.432Z,100657.19
2023-02-14T10:05:37.356Z,100625.41
2023-02-14T10:08:19.146Z,100648.84
2023-02-14T10:10:51.906Z,100647.72
2023-02-14T10:13:26.182Z,100636.13
2023-02-14T10:16:01.549Z,100643.47
2023-02-14T10:18:44.128Z,100632.78
2023-02-14T10:21:26.981Z,100634.84
2023-02-14T10:24:02.449Z,100617.91
2023-02-14T10:26:37.072Z,100614.56
2023-02-14T10:29:10.030Z,100629.34
2023-02-14T10:31:43.127Z,100621.72
2023-02-14T10:34:19.332Z,100617.78
2023-02-14T10:37:03.634Z,100616.97
2023-02-14T10:39:44.279Z,100609.47
2023-02-14T10:42:27.589Z,100608.38
2023-02-14T10:45:09.727Z,100596.63
2023-02-14T10:47:50.680Z,100607.31
2023-02-14T10:50:28.595Z,100605.22
2023-02-14T10:53:09.251Z,100601.88
2023-02-14T10:55:45.611Z,100602.66
2023-02-14T10:58:17.430Z,100590.25
2023-02-14T11:00:56.301Z,100579.88
2023-02-14T11:03:25.710Z,100588.34
2023-02-14T11:05:55.515Z,100586.09
2023-02-14T11:08:28.395Z,100571.47
2023-02-14T11:11:02.846Z,100563.97
2023-02-14T11:13:34.576Z,100585.31
2023-02-14T11:16:05.966Z,100573.19
2023-02-14T11:18:36.379Z,100558.38
2023-02-14T11:21:09.966Z,100559.22
2023-02-14T11:23:41.228Z,100556.66
2023-02-14T11:26:18.003Z,100542.97
2023-02-14T11:28:53.627Z,100547.75
2023-02-14T11:31:33.652Z,100560.00
2023-02-14T11:34:05.180Z,100562.22
2023-02-14T11:36:42.500Z,100554.91
2023-02-14T11:39:27.119Z,100561.13
2023-02-14T11:41:57.964Z,100552.34
2023-02-14T11:44:29.184Z,100551.41
2023-02-14T11:46:59.254Z,100552.50
2023-02-14T11:49:31.329Z,100543.28
2023-02-14T11:52:10.501Z,100546.31
2023-02-14T11:54:45.474Z,100537.69
2023-02-14T11:57:19.354Z,100538.69
2023-02-14T11:59:52.623Z,100533.09
2023-02-14T12:02:32.895Z,100527.03
2023-02-14T12:05:04.754Z,100530.72
2023-02-14T12:07:37.836Z,100524.81
2023-02-14T12:10:20.679Z,100514.31
2023-02-14T12:12:54.722Z,100559.69
2023-02-14T12:15:30.684Z,100520.03
2023-02-14T12:18:22.407Z,100519.09
2023-02-14T12:20:57.570Z,100513.66
2023-02-14T12:23:36.972Z,100512.56
2023-02-14T12:26:14.152Z,100514.44
2023-02-14T12:28:49.902Z,100520.69
2023-02-14T12:31:19.348Z,100516.53
2023-02-14T12:33:50.401Z,100514.63
2023-02-14T12:36:32.103Z,100515.25
2023-02-14T12:39:10.293Z,100504.75
2023-02-14T12:41:49.820Z,100510.59
2023-02-14T12:44:27.765Z,100519.38
2023-02-14T12:47:10.092Z,100512.53
2023-02-14T12:50:00.008Z,100504.56
2023-02-14T12:52:59.984Z,100493.22
2023-02-14T12:55:42.838Z,100485.06
2023-02-14T12:58:26.140Z,100483.94
2023-02-14T13:01:07.317Z,100487.19
2023-02-14T13:03:51.677Z,100486.72
2023-02-14T13:06:29.548Z,100491.00
2023-02-14T13:09:29.800Z,100505.19
2023-02-14T13:12:15.127Z,100507.44
2023-02-14T13:14:56.153Z,100498.06
2023-02-14T13:17:35.545Z,100503.31
2023-02-14T13:20:31.076Z,100507.63
2023-02-14T13:23:04.430Z,100511.44
2023-02-14T13:25:36.479Z,100510.66
2023-02-14T13:28:11.983Z,100498.69
2023-02-14T13:30:43.272Z,100505.88
2023-02-14T13:33:30.130Z,100512.72
2023-02-14T13:36:03.386Z,100510.66
2023-02-14T13:38:34.139Z,100516.38
2023-02-14T13:41:05.678Z,100514.59
2023-02-14T13:43:55.842Z,100504.03
2023-02-14T13:46:50.089Z,100512.16
2023-02-14T13:49:31.910Z,100525.53
2023-02-14T13:52:04.258Z,100522.69
2023-02-14T13:54:41.789Z,100537.31
2023-02-14T13:57:41.728Z,100525.78
2023-02-14T14:00:39.751Z,100531.13
2023-02-14T14:03:14.356Z,100539.44
2023-02-14T14:06:01.657Z,100538.00
2023-02-14T14:08:48.455Z,100544.97
2023-02-14T14:12:01.061Z,100540.34
2023-02-14T14:14:37.038Z,100549.88
2023-02-14T14:17:29.722Z,100542.25
2023-02-14T14:19:58.167Z,100551.13
2023-02-14T14:22:27.777Z,100544.25
2023-02-14T14:25:01.599Z,100544.53
2023-02-14T14:27:36.048Z,100536.56
2023-02-14T14:30:08.071Z,100541.97
2023-02-14T14:32:39.495Z,100538.50
2023-02-14T14:35:18.192Z,100540.84
2023-02-14T14:37:49.349Z,100541.59
2023-02-14T14:40:25.054Z,100544.28
2023-02-14T14:42:55.857Z,100548.09
2023-02-14T14:45:26.794Z,100540.78
2023-02-14T14:47:59.048Z,100549.22
2023-02-14T14:50:30.035Z,100538.22
2023-02-14T14:53:02.869Z,100534.84
2023-02-14T14:55:37.481Z,100549.72
2023-02-14T14:58:08.834Z,100537.13
2023-02-14T15:00:39.053Z,100551.56
2023-02-14T15:03:17.619Z,100545.91
2023-02-14T15:06:05.794Z,100551.34
2023-02-14T15:08:34.216Z,100564.16
2023-02-14T15:11:09.020Z,100560.50
2023-02-14T15:13:54.301Z,100556.94
2023-02-14T15:16:26.524Z,100553.34
2023-02-14T15:18:59.781Z,100565.34
2023-02-14T15:21:29.051Z,100560.06
2023-02-14T15:24:00.714Z,100571.53
2023-02-14T15:26:55.373Z,100571.66
2023-02-14T15:29:26.506Z,100579.56
2023-02-14T15:31:56.207Z,100581.03
2023-02-14T15:34:29.033Z,100578.16
2023-02-14T15:37:03.787Z,100576.66
2023-02-14T15:39:36.857Z,100573.28
2023-02-14T15:42:06.730Z,100573.88
2023-02-14T15:44:35.081Z,100578.75
2023-02-14T15:47:07.032Z,100587.94
2023-02-14T15:49:43.974Z,100572.06
2023-02-14T15:52:25.040Z,100570.75
2023-02-14T15:54:53.735Z,100579.25
2023-02-14T15:57:27.514Z,100576.94
2023-02-14T15:59:57.565Z,100569.44
2023-02-14T16:02:36.376Z,100564.16
2023-02-14T16:05:26.447Z,100566.66
2023-02-14T16:08:00.847Z,100571.84
2023-02-14T16:10:31.476Z,100571.34
2023-02-14T16:13:08.391Z,100577.50
2023-02-14T16:15:39.020Z,100570.03
2023-02-14T16:18:20.185Z,100578.97
2023-02-14T16:20:51.892Z,100577.19
2023-02-14T16:23:23.958Z,100583.38
2023-02-14T16:25:55.354Z,100582.59
2023-02-14T16:28:23.572Z,100574.78
2023-02-14T16:30:56.832Z,100570.59
2023-02-14T16:33:27.712Z,100580.09
2023-02-14T16:36:06.534Z,100582.25
2023-02-14T16:38:43.123Z,100584.78
2023-02-14T16:41:19.977Z,100587.78
2023-02-14T16:43:49.564Z,100595.13
2023-02-14T16:46:21.009Z,100593.31
2023-02-14T16:48:53.148Z,100599.63
2023-02-14T16:51:25.186Z,100601.25
2023-02-14T16:53:55.061Z,100597.53
2023-02-14T16:56:28.318Z,100603.81
2023-02-14T16:58:58.025Z,100604.59
2023-02-14T17:01:26.850Z,100606.50
2023-02-14T17:03:56.968Z,100599.28
2023-02-14T17:06:30.548Z,100598.28
2023-02-14T17:09:02.410Z,100596.47
2023-02-14T17:11:33.924Z,100608.34
2023-02-14T17:14:02.327Z,100607.50
2023-02-14T17:16:32.815Z,100601.13
2023-02-14T17:19:04.521Z,100603.22
2023-02-14T17:21:37.554Z,100601.06
2023-02-14T17:24:06.139Z,100611.81
2023-02-14T17:26:34.240Z,100615.38
2023-02-14T17:29:02.323Z,100611.56
2023-02-14T17:31:30.547Z,100616.47
2023-02-14T17:33:59.695Z,100625.91
2023-02-14T17:36:28.198Z,100619.75
2023-02-14T17:38:57.986Z,100625.91
2023-02-14T17:41:29.531Z,100624.88
2023-02-14T17:44:00.722Z,100632.94
2023-02-14T17:46:29.714Z,100630.56
2023-02-14T17:48:58.848Z,100633.75
2023-02-14T17:51:27.050Z,100636.53
2023-02-14T17:53:59.723Z,100644.28
2023-02-14T17:56:28.827Z,100647.03
2023-02-14T17:58:57.660Z,100642.19
2023-02-14T18:01:27.967Z,100641.59
2023-02-14T18:03:56.402Z,100641.16
2023-02-14T18:06:27.757Z,100643.03
2023-02-14T18:09:04.878Z,100643.59
2023-02-14T18:11:36.266Z,100642.28
2023-02-14T18:14:08.044Z,100638.81
2023-02-14T18:16:39.265Z,100632.13
2023-02-14T18:19:10.630Z,100632.38
2023-02-14T18:21:40.615Z,100634.59
2023-02-14T18:24:32.208Z,100646.59
2023-02-14T18:27:02.408Z,100644.19
2023-02-14T18:29:33.339Z,100643.97
2023-02-14T18:32:11.910Z,100637.22
2023-02-14T18:34:40.615Z,100630.16
2023-02-14T18:37:10.240Z,100639.59
2023-02-14T18:39:42.372Z,100630.47
2023-02-14T18:42:10.593Z,100626.47
2023-02-14T18:44:45.474Z,100633.09
2023-02-14T18:47:36.570Z,100631.47
2023-02-14T18:50:05.387Z,100634.75
2023-02-14T18:52:33.461Z,100628.50
2023-02-14T18:55:03.273Z,100612.97
2023-02-14T18:57:43.725Z,100622.41
2023-02-14T19:00:14.487Z,100612.44
2023-02-14T19:02:43.244Z,100608.44
2023-02-14T19:05:12.048Z,100615.72
2023-02-14T19:07:43.624Z,100614.09
2023-02-14T19:11:01.515Z,100619.78
2023-02-14T19:13:49.894Z,100605.06
2023-02-14T19:16:20.391Z,100600.22
2023-02-14T19:18:59.376Z,100596.94
2023-02-14T19:21:32.479Z,100589.97
2023-02-14T19:24:05.512Z,100589.75
2023-02-14T19:26:38.391Z,100596.94
2023-02-14T19:29:10.669Z,100602.31
2023-02-14T19:31:43.667Z,100600.50
2023-02-14T19:34:18.924Z,100604.28
2023-02-14T19:36:57.804Z,100611.31
2023-02-14T19:39:31.392Z,100614.28
2023-02-14T19:42:01.466Z,100624.25
2023-02-14T19:44:47.514Z,100626.16
2023-02-14T19:47:36.566Z,100625.06
2023-02-14T19:50:17.290Z,100636.16
2023-02-14T19:52:46.653Z,100644.66
2023-02-14T19:55:25.110Z,100645.25
2023-02-14T19:57:54.741Z,100643.88
2023-02-14T20:00:25.455Z,100638.75
2023-02-14T20:02:54.221Z,100646.25
2023-02-14T20:05:24.188Z,100643.56
2023-02-14T20:07:55.668Z,100644.88
2023-02-14T20:10:24.697Z,100643.50
2023-02-14T20:12:52.790Z,100646.50
2023-02-14T20:15:21.309Z,100650.84
2023-02-14T20:17:52.014Z,100644.72
2023-02-14T20:20:22.131Z,100656.00
2023-02-14T20:22:50.493Z,100653.09
2023-02-14T20:25:20.312Z,100653.34
2023-02-14T20:27:49.685Z,100658.84
2023-02-14T20:30:23.899Z,100668.78
2023-02-14T20:32:53.769Z,100668.22
2023-02-14T20:35:22.058Z,100672.56
2023-02-14T20:37:53.178Z,100674.22
2023-02-14T20:40:21.534Z,100672.03
2023-02-14T20:42:50.620Z,100680.47
2023-02-14T20:45:19.065Z,100669.72
2023-02-14T20:47:49.727Z,100672.09
2023-02-14T20:50:19.909Z,100667.50
2023-02-14T20:52:48.257Z,100670.03
2023-02-14T20:55:16.970Z,100677.59
2023-02-14T20:57:45.208Z,100671.88
2023-02-14T21:00:15.560Z,100675.66
2023-02-14T21:02:43.758Z,100670.56
2023-02-14T21:05:12.006Z,100670.56
2023-02-14T21:07:42.434Z,100681.59
2023-02-14T21:10:12.236Z,100679.19
2023-02-14T21:12:40.547Z,100695.34
2023-02-14T21:15:10.440Z,100689.44
2023-02-14T21:17:39.344Z,100683.81
2023-02-14T21:20:10.730Z,100687.06
2023-02-14T21:22:39.554Z,100688.38
2023-02-14T21:25:10.162Z,100685.97
2023-02-14T21:27:38.846Z,100686.53
2023-02-14T21:30:09.025Z,100688.94
2023-02-14T21:32:37.415Z,100689.00
2023-02-14T21:35:07.272Z,100687.63
2023-02-14T21:37:35.534Z,100680.41
2023-02-14T21:40:04.900Z,100682.75
2023-02-14T21:42:34.670Z,100686.56
2023-02-14T21:45:20.251Z,100683.06
2023-02-14T21:48:08.278Z,100683.38
2023-02-14T21:50:37.159Z,100687.13
2023-02-14T21:53:07.607Z,100687.44
2023-02-14T21:55:37.186Z,100676.44
2023-02-14T21:58:06.740Z,100686.13
2023-02-14T22:00:34.942Z,100686.41
2023-02-14T22:03:03.475Z,100690.44
2023-02-14T22:05:31.914Z,100691.53
2023-02-14T22:07:59.971Z,100691.78
2023-02-14T22:10:29.626Z,100686.19
2023-02-14T22:12:57.739Z,100696.13
2023-02-14T22:15:27.709Z,100688.34
2023-02-14T22:17:55.855Z,100698.81
2023-02-14T22:20:24.168Z,100689.47
2023-02-14T22:22:52.381Z,100697.75
2023-02-14T22:25:20.404Z,100701.78
2023-02-14T22:27:48.651Z,100699.66
2023-02-14T22:30:17.050Z,100694.00
2023-02-14T22:32:46.562Z,100703.13
2023-02-14T22:35:14.632Z,100702.91
2023-02-14T22:37:42.735Z,100694.06
2023-02-14T22:40:11.350Z,100702.13
2023-02-14T22:42:39.609Z,100696.97
2023-02-14T22:45:08.955Z,100694.28
2023-02-14T22:47:37.160Z,100697.75
2023-02-14T22:50:07.838Z,100703.97
2023-02-14T22:52:36.093Z,100706.38
2023-02-14T22:55:04.295Z,100702.38
2023-02-14T22:57:32.792Z,100703.72
2023-02-14T23:00:01.085Z,100703.50
2023-02-14T23:02:29.397Z,100716.91
2023-02-14T23:04:57.857Z,100720.16
2023-02-14T23:07:27.478Z,100720.97
2023-02-14T23:09:55.674Z,100713.72
2023-02-14T23:12:53.078Z,100715.66
2023-02-14T23:15:38.522Z,100725.59
2023-02-14T23:18:24.536Z,100722.63
2023-02-14T23:21:11.387Z,100717.03
2023-02-14T23:23:41.024Z,100724.56
2023-02-14T23:26:09.212Z,100726.94
2023-02-14T23:28:37.407Z,100732.06
2023-02-14T23:31:05.644Z,100726.19
2023-02-14T23:33:33.829Z,100727.84
2023-02-14T23:36:04.396Z,100730.75
2023-02-14T23:38:32.624Z,100735.59
2023-02-14T23:41:27.522Z,100733.19
2023-02-14T23:43:55.641Z,100738.03
2023-02-14T23:46:24.090Z,100744.47
2023-02-14T23:48:52.364Z,100737.50
2023-02-14T23:51:20.591Z,100731.66
2023-02-14T23:53:48.913Z,100731.13
2023-02-14T23:56:18.430Z,100739.16
2023-02-14T23:58:46.598Z,100750.97
